Kherson, Ukraine
Current Conditions -  °F | °C
As of 9:00 PM on Friday 19 Dec 2014 (Local Time) from UKON Reporting Station
Haze Haze  
Wind Chill: 31°   Ceiling: 600
Heat Index: 39°   Visibility: 2.8mi
Dew Point: 37°   Wind: 13mph
Humidity: 93%   Direction: 220°SW
Pressure: 30.03"   Gusts: NA
Location:  46.63°N, 32.6°E
Report Text: UKON 191800Z 22006MPS 4500 BR OVC006 04/03 Q1017 NOSIG
Loading
Personal Weather Stations






























Interactive Weather Map New forecast layout! Learn more

10-Day Weather Forecast

Advertisements
Track Severe Weather on mobile